sensor_id;sensor_type;location;lat;lon;timestamp;P1;durP1;ratioP1;P2;durP2;ratioP2
49340;SDS011;35209;51.050;13.678;2024-02-14T00:04:10;3.40;;;1.63;;
49340;SDS011;35209;51.050;13.678;2024-02-14T00:09:14;4.40;;;2.10;;
49340;SDS011;35209;51.050;13.678;2024-02-14T00:14:16;2.20;;;1.90;;
49340;SDS011;35209;51.050;13.678;2024-02-14T00:19:17;1.70;;;1.38;;
49340;SDS011;35209;51.050;13.678;2024-02-14T00:24:19;2.83;;;1.75;;
49340;SDS011;35209;51.050;13.678;2024-02-14T00:29:21;2.42;;;2.05;;
49340;SDS011;35209;51.050;13.678;2024-02-14T00:34:24;3.42;;;2.33;;
49340;SDS011;35209;51.050;13.678;2024-02-14T00:39:26;2.63;;;2.38;;
49340;SDS011;35209;51.050;13.678;2024-02-14T00:44:28;3.47;;;3.17;;
49340;SDS011;35209;51.050;13.678;2024-02-14T00:49:30;5.60;;;3.25;;
49340;SDS011;35209;51.050;13.678;2024-02-14T00:54:33;3.25;;;2.40;;
49340;SDS011;35209;51.050;13.678;2024-02-14T00:59:36;4.22;;;2.90;;
49340;SDS011;35209;51.050;13.678;2024-02-14T01:04:38;3.92;;;3.20;;
49340;SDS011;35209;51.050;13.678;2024-02-14T01:09:39;4.72;;;3.47;;
49340;SDS011;35209;51.050;13.678;2024-02-14T01:14:41;3.63;;;2.80;;
49340;SDS011;35209;51.050;13.678;2024-02-14T01:19:43;3.17;;;2.60;;
49340;SDS011;35209;51.050;13.678;2024-02-14T01:24:45;3.45;;;3.00;;
49340;SDS011;35209;51.050;13.678;2024-02-14T01:29:47;4.70;;;2.60;;
49340;SDS011;35209;51.050;13.678;2024-02-14T01:34:49;4.32;;;2.65;;
49340;SDS011;35209;51.050;13.678;2024-02-14T01:39:51;3.10;;;2.80;;
49340;SDS011;35209;51.050;13.678;2024-02-14T01:44:53;3.42;;;2.50;;
49340;SDS011;35209;51.050;13.678;2024-02-14T01:49:56;4.45;;;2.95;;
49340;SDS011;35209;51.050;13.678;2024-02-14T01:54:57;4.07;;;2.50;;
49340;SDS011;35209;51.050;13.678;2024-02-14T02:00:01;2.83;;;2.22;;
49340;SDS011;35209;51.050;13.678;2024-02-14T02:05:13;6.85;;;3.20;;
49340;SDS011;35209;51.050;13.678;2024-02-14T02:10:15;4.03;;;2.72;;
49340;SDS011;35209;51.050;13.678;2024-02-14T02:15:17;7.13;;;2.42;;
49340;SDS011;35209;51.050;13.678;2024-02-14T02:20:20;2.67;;;2.35;;
49340;SDS011;35209;51.050;13.678;2024-02-14T02:25:22;3.50;;;2.88;;
49340;SDS011;35209;51.050;13.678;2024-02-14T02:30:27;3.55;;;2.75;;
49340;SDS011;35209;51.050;13.678;2024-02-14T02:35:29;5.53;;;3.10;;
49340;SDS011;35209;51.050;13.678;2024-02-14T02:40:31;3.63;;;2.67;;
49340;SDS011;35209;51.050;13.678;2024-02-14T02:45:33;3.75;;;2.08;;
49340;SDS011;35209;51.050;13.678;2024-02-14T02:50:34;2.42;;;2.22;;
49340;SDS011;35209;51.050;13.678;2024-02-14T02:55:36;3.25;;;2.95;;
49340;SDS011;35209;51.050;13.678;2024-02-14T03:00:38;3.70;;;2.90;;
49340;SDS011;35209;51.050;13.678;2024-02-14T03:05:40;3.40;;;3.03;;
49340;SDS011;35209;51.050;13.678;2024-02-14T03:10:42;3.30;;;2.80;;
49340;SDS011;35209;51.050;13.678;2024-02-14T03:15:44;4.18;;;3.20;;
49340;SDS011;35209;51.050;13.678;2024-02-14T03:20:48;3.90;;;3.40;;
49340;SDS011;35209;51.050;13.678;2024-02-14T03:25:51;4.88;;;2.80;;
49340;SDS011;35209;51.050;13.678;2024-02-14T03:30:53;3.25;;;2.90;;
49340;SDS011;35209;51.050;13.678;2024-02-14T03:35:55;4.05;;;2.35;;
49340;SDS011;35209;51.050;13.678;2024-02-14T03:40:56;5.63;;;3.15;;
49340;SDS011;35209;51.050;13.678;2024-02-14T03:45:58;3.65;;;2.47;;
49340;SDS011;35209;51.050;13.678;2024-02-14T03:51:00;2.72;;;2.42;;
49340;SDS011;35209;51.050;13.678;2024-02-14T03:56:02;3.58;;;2.33;;
49340;SDS011;35209;51.050;13.678;2024-02-14T04:01:04;2.83;;;1.75;;
49340;SDS011;35209;51.050;13.678;2024-02-14T04:06:06;3.17;;;2.13;;
49340;SDS011;35209;51.050;13.678;2024-02-14T04:11:08;2.83;;;2.05;;
49340;SDS011;35209;51.050;13.678;2024-02-14T04:16:10;2.42;;;1.92;;
49340;SDS011;35209;51.050;13.678;2024-02-14T04:21:11;2.72;;;2.10;;
49340;SDS011;35209;51.050;13.678;2024-02-14T04:26:20;2.67;;;2.28;;
49340;SDS011;35209;51.050;13.678;2024-02-14T04:31:22;2.42;;;2.22;;
49340;SDS011;35209;51.050;13.678;2024-02-14T04:36:24;2.67;;;2.22;;
49340;SDS011;35209;51.050;13.678;2024-02-14T04:41:26;3.35;;;2.60;;
49340;SDS011;35209;51.050;13.678;2024-02-14T04:46:28;3.17;;;2.42;;
49340;SDS011;35209;51.050;13.678;2024-02-14T04:51:31;3.80;;;2.42;;
49340;SDS011;35209;51.050;13.678;2024-02-14T04:56:32;4.65;;;2.75;;
49340;SDS011;35209;51.050;13.678;2024-02-14T05:01:34;2.83;;;2.03;;
49340;SDS011;35209;51.050;13.678;2024-02-14T05:06:36;3.67;;;2.10;;
49340;SDS011;35209;51.050;13.678;2024-02-14T05:11:39;3.20;;;2.33;;
49340;SDS011;35209;51.050;13.678;2024-02-14T05:16:41;2.95;;;2.13;;
49340;SDS011;35209;51.050;13.678;2024-02-14T05:21:43;2.80;;;2.05;;
49340;SDS011;35209;51.050;13.678;2024-02-14T05:26:45;3.17;;;2.88;;
49340;SDS011;35209;51.050;13.678;2024-02-14T05:31:47;4.38;;;2.88;;
49340;SDS011;35209;51.050;13.678;2024-02-14T05:36:53;2.42;;;1.98;;
49340;SDS011;35209;51.050;13.678;2024-02-14T05:41:55;3.22;;;2.25;;
49340;SDS011;35209;51.050;13.678;2024-02-14T05:46:57;8.05;;;2.97;;
49340;SDS011;35209;51.050;13.678;2024-02-14T05:51:59;4.20;;;2.90;;
49340;SDS011;35209;51.050;13.678;2024-02-14T05:57:01;3.97;;;3.03;;
49340;SDS011;35209;51.050;13.678;2024-02-14T06:02:06;4.30;;;3.03;;
49340;SDS011;35209;51.050;13.678;2024-02-14T06:07:09;3.58;;;3.00;;
49340;SDS011;35209;51.050;13.678;2024-02-14T06:12:13;5.40;;;3.28;;
49340;SDS011;35209;51.050;13.678;2024-02-14T06:17:14;3.50;;;2.40;;
49340;SDS011;35209;51.050;13.678;2024-02-14T06:22:17;3.30;;;2.35;;
49340;SDS011;35209;51.050;13.678;2024-02-14T06:27:19;3.08;;;2.20;;
49340;SDS011;35209;51.050;13.678;2024-02-14T06:32:21;3.72;;;3.40;;
49340;SDS011;35209;51.050;13.678;2024-02-14T06:37:24;3.75;;;2.90;;
49340;SDS011;35209;51.050;13.678;2024-02-14T06:42:26;4.72;;;3.00;;
49340;SDS011;35209;51.050;13.678;2024-02-14T06:47:28;9.65;;;2.85;;
49340;SDS011;35209;51.050;13.678;2024-02-14T06:52:31;5.32;;;3.25;;
49340;SDS011;35209;51.050;13.678;2024-02-14T06:57:33;4.07;;;3.17;;
49340;SDS011;35209;51.050;13.678;2024-02-14T07:02:35;3.97;;;3.28;;
49340;SDS011;35209;51.050;13.678;2024-02-14T07:07:37;4.03;;;3.03;;
49340;SDS011;35209;51.050;13.678;2024-02-14T07:12:39;4.35;;;2.75;;
49340;SDS011;35209;51.050;13.678;2024-02-14T07:17:40;3.58;;;2.92;;
49340;SDS011;35209;51.050;13.678;2024-02-14T07:22:42;7.53;;;3.72;;
49340;SDS011;35209;51.050;13.678;2024-02-14T07:27:47;4.20;;;3.15;;
49340;SDS011;35209;51.050;13.678;2024-02-14T07:32:51;5.10;;;3.45;;
49340;SDS011;35209;51.050;13.678;2024-02-14T07:37:53;4.38;;;3.05;;
49340;SDS011;35209;51.050;13.678;2024-02-14T07:42:54;4.00;;;3.60;;
49340;SDS011;35209;51.050;13.678;2024-02-14T07:47:56;4.13;;;3.25;;
49340;SDS011;35209;51.050;13.678;2024-02-14T07:52:58;5.65;;;3.90;;
49340;SDS011;35209;51.050;13.678;2024-02-14T07:58:00;6.80;;;2.78;;
49340;SDS011;35209;51.050;13.678;2024-02-14T08:03:02;10.40;;;5.60;;
49340;SDS011;35209;51.050;13.678;2024-02-14T08:08:05;8.70;;;5.70;;
49340;SDS011;35209;51.050;13.678;2024-02-14T08:13:07;4.40;;;2.60;;
49340;SDS011;35209;51.050;13.678;2024-02-14T08:18:09;2.03;;;1.50;;
49340;SDS011;35209;51.050;13.678;2024-02-14T08:23:11;0.60;;;0.50;;
49340;SDS011;35209;51.050;13.678;2024-02-14T08:28:13;2.50;;;1.40;;
49340;SDS011;35209;51.050;13.678;2024-02-14T08:33:16;3.42;;;1.85;;
49340;SDS011;35209;51.050;13.678;2024-02-14T08:38:20;4.20;;;1.95;;
49340;SDS011;35209;51.050;13.678;2024-02-14T08:43:22;3.78;;;2.00;;
49340;SDS011;35209;51.050;13.678;2024-02-14T08:48:26;2.35;;;1.85;;
49340;SDS011;35209;51.050;13.678;2024-02-14T08:53:28;3.03;;;2.13;;
49340;SDS011;35209;51.050;13.678;2024-02-14T08:58:31;3.42;;;2.65;;
49340;SDS011;35209;51.050;13.678;2024-02-14T09:03:33;2.47;;;1.83;;
49340;SDS011;35209;51.050;13.678;2024-02-14T09:08:35;2.97;;;1.95;;
49340;SDS011;35209;51.050;13.678;2024-02-14T09:13:37;2.90;;;2.08;;
49340;SDS011;35209;51.050;13.678;2024-02-14T09:18:39;2.17;;;1.60;;
49340;SDS011;35209;51.050;13.678;2024-02-14T09:23:41;3.35;;;2.92;;
49340;SDS011;35209;51.050;13.678;2024-02-14T09:28:43;2.42;;;2.08;;
49340;SDS011;35209;51.050;13.678;2024-02-14T09:33:48;2.28;;;1.73;;
49340;SDS011;35209;51.050;13.678;2024-02-14T09:38:51;2.50;;;2.22;;
49340;SDS011;35209;51.050;13.678;2024-02-14T09:43:53;4.57;;;1.90;;
49340;SDS011;35209;51.050;13.678;2024-02-14T09:48:55;3.65;;;2.53;;
49340;SDS011;35209;51.050;13.678;2024-02-14T09:54:00;5.45;;;1.88;;
49340;SDS011;35209;51.050;13.678;2024-02-14T09:59:03;3.15;;;1.90;;
49340;SDS011;35209;51.050;13.678;2024-02-14T10:04:11;3.70;;;2.20;;
49340;SDS011;35209;51.050;13.678;2024-02-14T10:09:13;3.40;;;2.13;;
49340;SDS011;35209;51.050;13.678;2024-02-14T10:14:14;5.03;;;2.55;;
49340;SDS011;35209;51.050;13.678;2024-02-14T10:19:17;3.47;;;1.80;;
49340;SDS011;35209;51.050;13.678;2024-02-14T10:24:20;4.45;;;2.03;;
49340;SDS011;35209;51.050;13.678;2024-02-14T10:29:21;3.28;;;2.15;;
49340;SDS011;35209;51.050;13.678;2024-02-14T10:34:24;3.45;;;1.90;;
49340;SDS011;35209;51.050;13.678;2024-02-14T10:39:28;2.42;;;0.95;;
49340;SDS011;35209;51.050;13.678;2024-02-14T10:44:32;0.60;;;0.45;;
49340;SDS011;35209;51.050;13.678;2024-02-14T10:49:36;1.35;;;0.60;;
49340;SDS011;35209;51.050;13.678;2024-02-14T10:54:41;0.50;;;0.30;;
49340;SDS011;35209;51.050;13.678;2024-02-14T10:59:44;1.50;;;0.45;;
49340;SDS011;35209;51.050;13.678;2024-02-14T11:04:47;1.05;;;0.40;;
49340;SDS011;35209;51.050;13.678;2024-02-14T11:10:01;2.10;;;0.50;;
49340;SDS011;35209;51.050;13.678;2024-02-14T11:20:38;0.80;;;0.45;;
49340;SDS011;35209;51.050;13.678;2024-02-14T11:25:43;0.90;;;0.40;;
49340;SDS011;35209;51.050;13.678;2024-02-14T11:30:45;3.45;;;0.50;;
49340;SDS011;35209;51.050;13.678;2024-02-14T11:35:48;0.57;;;0.38;;
49340;SDS011;35209;51.050;13.678;2024-02-14T11:40:55;0.43;;;0.30;;
49340;SDS011;35209;51.050;13.678;2024-02-14T11:45:58;0.38;;;0.30;;
49340;SDS011;35209;51.050;13.678;2024-02-14T11:51:00;0.52;;;0.30;;
49340;SDS011;35209;51.050;13.678;2024-02-14T11:56:04;0.90;;;0.43;;
49340;SDS011;35209;51.050;13.678;2024-02-14T12:01:06;0.52;;;0.22;;
49340;SDS011;35209;51.050;13.678;2024-02-14T12:06:08;1.17;;;0.50;;
49340;SDS011;35209;51.050;13.678;2024-02-14T12:11:11;0.73;;;0.40;;
49340;SDS011;35209;51.050;13.678;2024-02-14T12:16:13;0.50;;;0.30;;
49340;SDS011;35209;51.050;13.678;2024-02-14T12:21:16;0.63;;;0.30;;
49340;SDS011;35209;51.050;13.678;2024-02-14T12:26:18;0.40;;;0.30;;
49340;SDS011;35209;51.050;13.678;2024-02-14T12:31:21;0.45;;;0.30;;
49340;SDS011;35209;51.050;13.678;2024-02-14T12:36:25;0.57;;;0.50;;
49340;SDS011;35209;51.050;13.678;2024-02-14T12:41:29;0.77;;;0.43;;
49340;SDS011;35209;51.050;13.678;2024-02-14T12:46:31;0.45;;;0.20;;
49340;SDS011;35209;51.050;13.678;2024-02-14T12:51:34;1.45;;;0.40;;
49340;SDS011;35209;51.050;13.678;2024-02-14T12:56:37;0.60;;;0.35;;
49340;SDS011;35209;51.050;13.678;2024-02-14T13:01:39;0.93;;;0.40;;
49340;SDS011;35209;51.050;13.678;2024-02-14T13:06:42;0.52;;;0.38;;
49340;SDS011;35209;51.050;13.678;2024-02-14T13:11:44;0.73;;;0.40;;
49340;SDS011;35209;51.050;13.678;2024-02-14T13:16:46;0.40;;;0.30;;
49340;SDS011;35209;51.050;13.678;2024-02-14T13:21:48;0.93;;;0.32;;
49340;SDS011;35209;51.050;13.678;2024-02-14T13:26:50;0.63;;;0.30;;
49340;SDS011;35209;51.050;13.678;2024-02-14T13:31:52;0.63;;;0.30;;
49340;SDS011;35209;51.050;13.678;2024-02-14T13:36:54;0.65;;;0.52;;
49340;SDS011;35209;51.050;13.678;2024-02-14T13:41:58;0.90;;;0.50;;
49340;SDS011;35209;51.050;13.678;2024-02-14T13:47:01;1.23;;;0.40;;
49340;SDS011;35209;51.050;13.678;2024-02-14T13:52:04;0.88;;;0.38;;
49340;SDS011;35209;51.050;13.678;2024-02-14T13:57:06;0.98;;;0.45;;
49340;SDS011;35209;51.050;13.678;2024-02-14T14:02:08;0.68;;;0.40;;
49340;SDS011;35209;51.050;13.678;2024-02-14T14:07:11;1.48;;;0.50;;
49340;SDS011;35209;51.050;13.678;2024-02-14T14:12:13;1.52;;;0.40;;
49340;SDS011;35209;51.050;13.678;2024-02-14T14:17:14;0.40;;;0.40;;
49340;SDS011;35209;51.050;13.678;2024-02-14T14:22:16;0.85;;;0.60;;
49340;SDS011;35209;51.050;13.678;2024-02-14T14:27:18;0.47;;;0.45;;
49340;SDS011;35209;51.050;13.678;2024-02-14T14:32:22;1.23;;;0.57;;
49340;SDS011;35209;51.050;13.678;2024-02-14T14:37:24;0.52;;;0.40;;
49340;SDS011;35209;51.050;13.678;2024-02-14T14:42:26;0.35;;;0.35;;
49340;SDS011;35209;51.050;13.678;2024-02-14T14:47:28;2.80;;;2.47;;
49340;SDS011;35209;51.050;13.678;2024-02-14T14:52:30;1.20;;;0.95;;
49340;SDS011;35209;51.050;13.678;2024-02-14T14:57:31;1.73;;;1.25;;
49340;SDS011;35209;51.050;13.678;2024-02-14T15:02:33;1.85;;;0.50;;
49340;SDS011;35209;51.050;13.678;2024-02-14T15:07:37;1.55;;;0.85;;
49340;SDS011;35209;51.050;13.678;2024-02-14T15:12:39;1.25;;;0.77;;
49340;SDS011;35209;51.050;13.678;2024-02-14T15:17:41;1.33;;;1.00;;
49340;SDS011;35209;51.050;13.678;2024-02-14T15:22:43;0.88;;;0.55;;
49340;SDS011;35209;51.050;13.678;2024-02-14T15:27:45;2.53;;;1.20;;
49340;SDS011;35209;51.050;13.678;2024-02-14T15:32:56;2.22;;;1.38;;
49340;SDS011;35209;51.050;13.678;2024-02-14T15:38:17;0.80;;;0.50;;
49340;SDS011;35209;51.050;13.678;2024-02-14T15:43:25;1.35;;;0.80;;
49340;SDS011;35209;51.050;13.678;2024-02-14T15:48:27;1.17;;;0.68;;
49340;SDS011;35209;51.050;13.678;2024-02-14T15:53:33;1.52;;;0.98;;
49340;SDS011;35209;51.050;13.678;2024-02-14T15:58:35;2.08;;;0.82;;
49340;SDS011;35209;51.050;13.678;2024-02-14T16:03:37;0.65;;;0.45;;
49340;SDS011;35209;51.050;13.678;2024-02-14T16:08:39;0.80;;;0.50;;
49340;SDS011;35209;51.050;13.678;2024-02-14T16:13:41;0.68;;;0.60;;
49340;SDS011;35209;51.050;13.678;2024-02-14T16:18:43;1.02;;;0.90;;
49340;SDS011;35209;51.050;13.678;2024-02-14T16:23:45;1.48;;;0.40;;
49340;SDS011;35209;51.050;13.678;2024-02-14T16:28:47;0.73;;;0.50;;
49340;SDS011;35209;51.050;13.678;2024-02-14T16:33:49;0.85;;;0.52;;
49340;SDS011;35209;51.050;13.678;2024-02-14T16:38:51;0.73;;;0.60;;
49340;SDS011;35209;51.050;13.678;2024-02-14T16:43:53;1.17;;;0.60;;
49340;SDS011;35209;51.050;13.678;2024-02-14T16:48:55;0.70;;;0.50;;
49340;SDS011;35209;51.050;13.678;2024-02-14T16:53:56;0.50;;;0.50;;
49340;SDS011;35209;51.050;13.678;2024-02-14T16:58:58;0.60;;;0.60;;
49340;SDS011;35209;51.050;13.678;2024-02-14T17:04:00;0.95;;;0.65;;
49340;SDS011;35209;51.050;13.678;2024-02-14T17:09:06;1.03;;;0.60;;
49340;SDS011;35209;51.050;13.678;2024-02-14T17:14:08;1.90;;;0.70;;
49340;SDS011;35209;51.050;13.678;2024-02-14T17:19:11;0.88;;;0.65;;
49340;SDS011;35209;51.050;13.678;2024-02-14T17:24:13;0.63;;;0.63;;
49340;SDS011;35209;51.050;13.678;2024-02-14T17:29:15;0.80;;;0.50;;
49340;SDS011;35209;51.050;13.678;2024-02-14T17:34:18;0.40;;;0.40;;
49340;SDS011;35209;51.050;13.678;2024-02-14T17:39:20;0.55;;;0.45;;
49340;SDS011;35209;51.050;13.678;2024-02-14T17:44:21;0.82;;;0.70;;
49340;SDS011;35209;51.050;13.678;2024-02-14T17:49:23;2.28;;;0.90;;
49340;SDS011;35209;51.050;13.678;2024-02-14T17:54:26;0.50;;;0.43;;
49340;SDS011;35209;51.050;13.678;2024-02-14T17:59:28;1.75;;;0.68;;
49340;SDS011;35209;51.050;13.678;2024-02-14T18:04:30;1.30;;;0.60;;
49340;SDS011;35209;51.050;13.678;2024-02-14T18:09:32;0.85;;;0.55;;
49340;SDS011;35209;51.050;13.678;2024-02-14T18:14:34;1.40;;;0.70;;
49340;SDS011;35209;51.050;13.678;2024-02-14T18:19:36;1.00;;;0.80;;
49340;SDS011;35209;51.050;13.678;2024-02-14T18:24:39;1.02;;;0.75;;
49340;SDS011;35209;51.050;13.678;2024-02-14T18:29:40;0.88;;;0.70;;
49340;SDS011;35209;51.050;13.678;2024-02-14T18:34:42;2.47;;;0.70;;
49340;SDS011;35209;51.050;13.678;2024-02-14T18:39:44;0.60;;;0.60;;
49340;SDS011;35209;51.050;13.678;2024-02-14T18:44:49;1.77;;;0.73;;
49340;SDS011;35209;51.050;13.678;2024-02-14T18:49:51;0.75;;;0.73;;
49340;SDS011;35209;51.050;13.678;2024-02-14T18:54:54;0.65;;;0.60;;
49340;SDS011;35209;51.050;13.678;2024-02-14T19:00:04;0.77;;;0.60;;
49340;SDS011;35209;51.050;13.678;2024-02-14T19:05:11;0.93;;;0.82;;
49340;SDS011;35209;51.050;13.678;2024-02-14T19:10:13;1.00;;;0.65;;
49340;SDS011;35209;51.050;13.678;2024-02-14T19:15:16;1.05;;;0.60;;
49340;SDS011;35209;51.050;13.678;2024-02-14T19:20:20;0.73;;;0.43;;
49340;SDS011;35209;51.050;13.678;2024-02-14T19:25:23;2.67;;;0.77;;
49340;SDS011;35209;51.050;13.678;2024-02-14T19:30:25;0.55;;;0.50;;
49340;SDS011;35209;51.050;13.678;2024-02-14T19:35:27;0.77;;;0.40;;
49340;SDS011;35209;51.050;13.678;2024-02-14T19:40:30;0.70;;;0.60;;
49340;SDS011;35209;51.050;13.678;2024-02-14T19:45:32;1.23;;;0.65;;
49340;SDS011;35209;51.050;13.678;2024-02-14T19:50:37;0.95;;;0.65;;
49340;SDS011;35209;51.050;13.678;2024-02-14T19:55:39;0.70;;;0.50;;
49340;SDS011;35209;51.050;13.678;2024-02-14T20:00:41;0.98;;;0.65;;
49340;SDS011;35209;51.050;13.678;2024-02-14T20:05:44;0.90;;;0.55;;
49340;SDS011;35209;51.050;13.678;2024-02-14T20:10:50;0.88;;;0.60;;
49340;SDS011;35209;51.050;13.678;2024-02-14T20:15:52;0.85;;;0.80;;
49340;SDS011;35209;51.050;13.678;2024-02-14T20:20:55;2.10;;;0.60;;
49340;SDS011;35209;51.050;13.678;2024-02-14T20:25:57;1.10;;;0.70;;
49340;SDS011;35209;51.050;13.678;2024-02-14T20:30:59;0.70;;;0.50;;
49340;SDS011;35209;51.050;13.678;2024-02-14T20:36:01;0.70;;;0.60;;
49340;SDS011;35209;51.050;13.678;2024-02-14T20:41:03;0.55;;;0.40;;
49340;SDS011;35209;51.050;13.678;2024-02-14T20:46:05;1.23;;;1.10;;
49340;SDS011;35209;51.050;13.678;2024-02-14T20:51:07;0.88;;;0.70;;
49340;SDS011;35209;51.050;13.678;2024-02-14T20:56:09;2.10;;;1.10;;
49340;SDS011;35209;51.050;13.678;2024-02-14T21:01:12;1.92;;;1.20;;
49340;SDS011;35209;51.050;13.678;2024-02-14T21:06:14;1.05;;;0.70;;
49340;SDS011;35209;51.050;13.678;2024-02-14T21:11:16;1.05;;;0.70;;
49340;SDS011;35209;51.050;13.678;2024-02-14T21:16:20;1.20;;;0.95;;
49340;SDS011;35209;51.050;13.678;2024-02-14T21:21:22;1.13;;;0.80;;
49340;SDS011;35209;51.050;13.678;2024-02-14T21:26:24;1.55;;;0.80;;
49340;SDS011;35209;51.050;13.678;2024-02-14T21:31:26;1.42;;;1.02;;
49340;SDS011;35209;51.050;13.678;2024-02-14T21:36:29;1.23;;;0.85;;
49340;SDS011;35209;51.050;13.678;2024-02-14T21:41:33;1.30;;;0.90;;
49340;SDS011;35209;51.050;13.678;2024-02-14T21:46:36;0.93;;;0.82;;
49340;SDS011;35209;51.050;13.678;2024-02-14T21:51:38;2.17;;;0.90;;
49340;SDS011;35209;51.050;13.678;2024-02-14T21:56:40;1.10;;;0.80;;
49340;SDS011;35209;51.050;13.678;2024-02-14T22:01:42;1.40;;;0.90;;
49340;SDS011;35209;51.050;13.678;2024-02-14T22:06:44;1.17;;;0.77;;
49340;SDS011;35209;51.050;13.678;2024-02-14T22:11:47;0.80;;;0.73;;
49340;SDS011;35209;51.050;13.678;2024-02-14T22:16:49;1.52;;;1.00;;
49340;SDS011;35209;51.050;13.678;2024-02-14T22:21:53;1.02;;;0.80;;
49340;SDS011;35209;51.050;13.678;2024-02-14T22:26:55;0.88;;;0.57;;
49340;SDS011;35209;51.050;13.678;2024-02-14T22:31:57;1.38;;;0.85;;
49340;SDS011;35209;51.050;13.678;2024-02-14T22:36:59;2.63;;;0.80;;
49340;SDS011;35209;51.050;13.678;2024-02-14T22:42:00;1.65;;;0.70;;
49340;SDS011;35209;51.050;13.678;2024-02-14T22:47:03;1.55;;;0.60;;
49340;SDS011;35209;51.050;13.678;2024-02-14T22:52:08;1.00;;;0.70;;
49340;SDS011;35209;51.050;13.678;2024-02-14T22:57:11;0.98;;;0.80;;
49340;SDS011;35209;51.050;13.678;2024-02-14T23:02:14;1.10;;;0.90;;
49340;SDS011;35209;51.050;13.678;2024-02-14T23:07:15;1.23;;;1.10;;
49340;SDS011;35209;51.050;13.678;2024-02-14T23:12:19;2.35;;;1.45;;
49340;SDS011;35209;51.050;13.678;2024-02-14T23:17:21;2.33;;;1.30;;
49340;SDS011;35209;51.050;13.678;2024-02-14T23:22:22;1.75;;;1.40;;
49340;SDS011;35209;51.050;13.678;2024-02-14T23:27:24;1.58;;;1.25;;
49340;SDS011;35209;51.050;13.678;2024-02-14T23:32:26;1.00;;;0.88;;
49340;SDS011;35209;51.050;13.678;2024-02-14T23:37:28;1.45;;;0.90;;
49340;SDS011;35209;51.050;13.678;2024-02-14T23:42:31;2.17;;;1.83;;
49340;SDS011;35209;51.050;13.678;2024-02-14T23:47:33;2.60;;;2.17;;
49340;SDS011;35209;51.050;13.678;2024-02-14T23:52:35;2.50;;;2.13;;
49340;SDS011;35209;51.050;13.678;2024-02-14T23:57:37;2.13;;;1.75;;
